2VE2 weather

Spring Valley Hospital Heliport
Las Vegas, Nevada, United States

Public forecast

Using degrees Fahrenheit for public forecast. Weather courtesy of forecast.io.

METAR (pilot weather report)

Closest report is McCarran International Airport, 4.3 nm (7.9 km) E. Retrieved 2019/03/26 00:56 UTC (46 minutes ago):

KLAS 260056Z 05004KT 10SM FEW250 24/M04 A3002 RMK AO2 SLP154 T02391044

TAF (pilot weather forecast)

Forecast is more than 12 hours old.

Closest forecast is McCarran International Airport, 4.3 nm (7.9 km) E. Retrieved 2019/03/25 00:22 UTC (1 day ago):

TAF KLAS 252320Z 2600/2706 10007KT P6SM FEW250 FM260300 21006KT P6SM FEW250 FM261400 VRB05KT P6SM SCT250 FM261900 08007KT P6SM SCT250 FM262100 21011G18KT P6SM SCT250 FM270300 21009KT P6SM SCT250